createdAt,value
2022-10-14T00:00:05.929Z,12.45
2022-10-14T00:01:05.958Z,12.45
2022-10-14T00:02:05.959Z,12.45
2022-10-14T00:03:05.899Z,12.45
2022-10-14T00:04:05.879Z,12.45
2022-10-14T00:05:05.871Z,12.45
2022-10-14T00:06:05.878Z,12.45
2022-10-14T00:07:05.839Z,12.48
2022-10-14T00:08:05.828Z,12.47
2022-10-14T00:09:05.855Z,12.47
2022-10-14T00:10:05.800Z,12.47
2022-10-14T00:11:05.807Z,12.45
2022-10-14T00:12:05.756Z,12.45
2022-10-14T00:13:05.781Z,12.47
2022-10-14T00:14:05.742Z,12.45
2022-10-14T00:15:05.799Z,12.45
2022-10-14T00:16:05.751Z,12.45
2022-10-14T00:17:05.708Z,12.45
2022-10-14T00:18:05.697Z,12.45
2022-10-14T00:19:05.703Z,12.47
2022-10-14T00:20:05.661Z,12.47
2022-10-14T00:21:05.670Z,12.47
2022-10-14T00:22:05.651Z,12.47
2022-10-14T00:23:05.627Z,12.47
2022-10-14T00:24:05.609Z,12.47
2022-10-14T00:25:05.607Z,12.47
2022-10-14T00:26:05.609Z,12.47
2022-10-14T00:27:05.571Z,12.47
2022-10-14T00:28:05.552Z,12.48
2022-10-14T00:29:05.567Z,12.47
2022-10-14T00:30:05.530Z,12.48
2022-10-14T00:31:05.533Z,12.48
2022-10-14T00:32:05.500Z,12.48
2022-10-14T00:33:05.494Z,12.48
2022-10-14T00:34:05.470Z,12.48
2022-10-14T00:35:05.460Z,12.48
2022-10-14T00:36:05.459Z,12.47
2022-10-14T00:37:05.441Z,12.48
2022-10-14T00:38:05.430Z,12.47
2022-10-14T00:39:05.418Z,12.48
2022-10-14T00:40:05.390Z,12.48
2022-10-14T00:41:05.392Z,12.47
2022-10-14T00:42:05.372Z,12.48
2022-10-14T00:43:05.346Z,12.47
2022-10-14T00:44:05.342Z,12.48
2022-10-14T00:45:05.331Z,12.48
2022-10-14T00:46:05.331Z,12.48
2022-10-14T00:47:05.308Z,12.48
2022-10-14T00:48:05.291Z,12.50
2022-10-14T00:49:05.283Z,12.48
2022-10-14T00:50:05.263Z,12.48
2022-10-14T00:51:05.263Z,12.48
2022-10-14T00:52:05.234Z,12.48
2022-10-14T00:53:05.221Z,12.47
2022-10-14T00:54:05.216Z,12.47
2022-10-14T00:55:05.193Z,12.47
2022-10-14T00:56:05.192Z,12.47
2022-10-14T00:57:05.162Z,12.48
2022-10-14T00:58:05.157Z,12.47
2022-10-14T00:59:05.143Z,12.47
2022-10-14T01:00:05.193Z,12.47
2022-10-14T01:01:05.189Z,12.47
2022-10-14T01:02:05.102Z,12.47
2022-10-14T01:03:05.083Z,12.48
2022-10-14T01:04:05.091Z,12.47
2022-10-14T01:05:05.064Z,12.47
2022-10-14T01:06:05.062Z,12.47
2022-10-14T01:07:05.053Z,12.47
2022-10-14T01:08:05.046Z,12.47
2022-10-14T01:09:05.016Z,12.45
2022-10-14T01:10:04.992Z,12.45
2022-10-14T01:11:05.042Z,12.44
2022-10-14T01:12:27.626Z,12.45
2022-10-14T01:13:05.952Z,12.45
2022-10-14T01:14:04.951Z,12.44
2022-10-14T01:15:05.014Z,12.45
2022-10-14T01:16:04.903Z,12.45
2022-10-14T01:17:04.935Z,12.47
2022-10-14T01:18:04.883Z,12.47
2022-10-14T01:19:04.880Z,12.47
2022-10-14T01:20:04.862Z,12.45
2022-10-14T01:21:04.853Z,12.47
2022-10-14T01:22:04.845Z,12.45
2022-10-14T01:23:04.823Z,12.45
2022-10-14T01:24:04.817Z,12.44
2022-10-14T01:25:04.800Z,12.43
2022-10-14T01:26:04.772Z,12.44
2022-10-14T01:27:04.783Z,12.44
2022-10-14T01:28:04.745Z,12.43
2022-10-14T01:29:04.750Z,12.44
2022-10-14T01:30:04.723Z,12.43
2022-10-14T01:31:04.713Z,12.43
2022-10-14T01:32:04.711Z,12.44
2022-10-14T01:33:04.695Z,12.40
2022-10-14T01:34:04.673Z,12.43
2022-10-14T01:35:04.655Z,12.43
2022-10-14T01:36:04.648Z,12.40
2022-10-14T01:37:04.643Z,12.39
2022-10-14T01:38:04.687Z,12.40
2022-10-14T01:39:04.604Z,12.39
2022-10-14T01:40:04.583Z,12.39
2022-10-14T01:41:04.574Z,12.39
2022-10-14T01:42:04.564Z,12.39
2022-10-14T01:43:04.554Z,12.37
2022-10-14T01:44:04.546Z,12.39
2022-10-14T01:45:04.535Z,12.39
2022-10-14T01:46:04.522Z,12.39
2022-10-14T01:47:04.506Z,12.39
2022-10-14T01:48:04.475Z,12.43
2022-10-14T01:49:04.475Z,12.40
2022-10-14T01:50:04.453Z,12.40
2022-10-14T01:51:04.424Z,12.40
2022-10-14T01:52:04.453Z,12.43
2022-10-14T01:53:04.423Z,12.40
2022-10-14T01:54:04.393Z,12.40
2022-10-14T01:55:04.380Z,12.40
2022-10-14T01:56:04.372Z,12.43
2022-10-14T01:57:04.342Z,12.40
2022-10-14T01:58:04.343Z,12.44
2022-10-14T01:59:04.348Z,12.43
2022-10-14T02:00:04.316Z,12.40
2022-10-14T02:01:04.297Z,12.40
2022-10-14T02:02:04.359Z,12.40
2022-10-14T02:03:04.273Z,12.40
2022-10-14T02:04:04.264Z,12.40
2022-10-14T02:05:04.235Z,12.40
2022-10-14T02:06:04.234Z,12.43
2022-10-14T02:07:04.224Z,12.40
2022-10-14T02:08:04.213Z,12.40
2022-10-14T02:09:04.196Z,12.39
2022-10-14T02:10:04.262Z,12.39
2022-10-14T02:11:04.154Z,12.39
2022-10-14T02:12:04.175Z,12.40
2022-10-14T02:13:04.124Z,12.39
2022-10-14T02:14:04.114Z,12.40
2022-10-14T02:15:04.112Z,12.39
2022-10-14T02:16:04.087Z,12.39
2022-10-14T02:17:04.113Z,12.39
2022-10-14T02:18:04.072Z,12.37
2022-10-14T02:19:04.052Z,12.36
2022-10-14T02:20:04.043Z,12.36
2022-10-14T02:21:04.038Z,12.35
2022-10-14T02:22:04.025Z,12.36
2022-10-14T02:23:03.996Z,12.33
2022-10-14T02:24:03.997Z,12.35
2022-10-14T02:25:03.966Z,12.33
2022-10-14T02:26:03.977Z,12.33
2022-10-14T02:27:03.946Z,12.35
2022-10-14T02:28:03.934Z,12.33
2022-10-14T02:29:03.923Z,12.32
2022-10-14T02:30:03.912Z,12.32
2022-10-14T02:31:03.915Z,12.30
2022-10-14T02:32:03.903Z,12.30
2022-10-14T02:33:03.856Z,12.30
2022-10-14T02:34:03.847Z,12.30
2022-10-14T02:35:03.849Z,12.29
2022-10-14T02:36:03.844Z,12.30
2022-10-14T02:37:03.873Z,12.30
2022-10-14T02:38:03.844Z,12.30
2022-10-14T02:39:03.779Z,12.30
2022-10-14T02:40:03.787Z,12.29
2022-10-14T02:41:03.793Z,12.32
2022-10-14T02:42:03.736Z,12.29
2022-10-14T02:43:03.749Z,12.30
2022-10-14T02:44:03.821Z,12.32
2022-10-14T02:45:03.751Z,12.30
2022-10-14T02:46:03.696Z,12.30
2022-10-14T02:47:03.763Z,12.30
2022-10-14T02:48:03.686Z,12.30
2022-10-14T02:49:03.696Z,12.30
2022-10-14T02:50:03.633Z,12.30
2022-10-14T02:51:03.630Z,12.30
2022-10-14T02:52:03.625Z,12.30
2022-10-14T02:53:03.585Z,12.30
2022-10-14T02:54:03.587Z,12.30
2022-10-14T02:55:03.570Z,12.30
2022-10-14T02:56:03.550Z,12.30
2022-10-14T02:57:03.558Z,12.32
2022-10-14T02:58:03.539Z,12.32
2022-10-14T02:59:03.506Z,12.32
2022-10-14T03:00:03.496Z,12.32
2022-10-14T03:01:03.487Z,12.32
2022-10-14T03:02:03.564Z,12.32
2022-10-14T03:03:03.457Z,12.33
2022-10-14T03:04:03.454Z,12.33
2022-10-14T03:05:03.445Z,12.32
2022-10-14T03:06:03.419Z,12.32
2022-10-14T03:07:03.438Z,12.33
2022-10-14T03:08:03.388Z,12.32
2022-10-14T03:09:03.377Z,12.32
2022-10-14T03:10:03.367Z,12.33
2022-10-14T03:11:03.348Z,12.33
2022-10-14T03:12:03.348Z,12.33
2022-10-14T03:13:03.326Z,12.35
2022-10-14T03:14:03.315Z,12.35
2022-10-14T03:15:03.307Z,12.35
2022-10-14T03:16:03.277Z,12.33
2022-10-14T03:17:03.309Z,12.35
2022-10-14T03:18:03.239Z,12.33
2022-10-14T03:19:03.248Z,12.35
2022-10-14T03:20:03.237Z,12.33
2022-10-14T03:21:03.219Z,12.35
2022-10-14T03:22:03.220Z,12.33
2022-10-14T03:23:03.188Z,12.35
2022-10-14T03:24:03.177Z,12.32
2022-10-14T03:25:03.163Z,12.32
2022-10-14T03:26:03.148Z,12.33
2022-10-14T03:27:03.148Z,12.32
2022-10-14T03:28:03.120Z,12.33
2022-10-14T03:29:03.111Z,12.32
2022-10-14T03:30:03.088Z,12.33
2022-10-14T03:31:03.069Z,12.33
2022-10-14T03:32:03.077Z,12.33
2022-10-14T03:33:03.070Z,12.33
2022-10-14T03:34:03.039Z,12.35
2022-10-14T03:35:03.028Z,12.36
2022-10-14T03:36:03.016Z,12.35
2022-10-14T03:37:03.008Z,12.33
2022-10-14T03:38:03.001Z,12.35
2022-10-14T03:39:02.970Z,12.35
2022-10-14T03:40:02.958Z,12.36
2022-10-14T03:41:02.941Z,12.36
2022-10-14T03:42:02.927Z,12.36
2022-10-14T03:43:02.950Z,12.36
2022-10-14T03:44:02.901Z,12.35
2022-10-14T03:45:02.890Z,12.36
2022-10-14T03:46:02.909Z,12.35
2022-10-14T03:47:02.860Z,12.35
2022-10-14T03:48:02.869Z,12.35
2022-10-14T03:49:02.857Z,12.33
2022-10-14T03:50:02.819Z,12.35
2022-10-14T03:51:02.801Z,12.36
2022-10-14T03:53:04.554Z,12.37
2022-10-14T03:54:04.514Z,12.36
2022-10-14T03:55:04.605Z,12.35
2022-10-14T03:56:04.494Z,12.35
2022-10-14T03:57:04.472Z,12.35
2022-10-14T03:58:04.467Z,12.35
2022-10-14T03:59:04.452Z,12.37
2022-10-14T04:00:04.433Z,12.35
2022-10-14T04:01:04.423Z,12.35
2022-10-14T04:02:04.479Z,12.35
2022-10-14T04:03:04.414Z,12.33
2022-10-14T04:04:04.381Z,12.33
2022-10-14T04:05:04.372Z,12.35
2022-10-14T04:06:04.370Z,12.35
2022-10-14T04:07:04.342Z,12.32
2022-10-14T04:08:04.341Z,12.33
2022-10-14T04:09:04.313Z,12.32
2022-10-14T04:10:04.305Z,12.33
2022-10-14T04:11:04.293Z,12.35
2022-10-14T04:12:04.281Z,12.35
2022-10-14T04:13:04.266Z,12.35
2022-10-14T04:14:04.264Z,12.35
2022-10-14T04:15:04.246Z,12.35
2022-10-14T04:16:04.226Z,12.35
2022-10-14T04:17:04.194Z,12.35
2022-10-14T04:18:04.195Z,12.35
2022-10-14T04:19:04.204Z,12.36
2022-10-14T04:20:04.178Z,12.36
2022-10-14T04:21:04.165Z,12.36
2022-10-14T04:22:04.156Z,12.35
2022-10-14T04:23:04.145Z,12.33
2022-10-14T04:24:08.218Z,12.35
2022-10-14T04:25:04.105Z,12.35
2022-10-14T04:26:04.094Z,12.35
2022-10-14T04:27:04.084Z,12.33
2022-10-14T04:28:04.066Z,12.35
2022-10-14T04:29:04.065Z,12.35
2022-10-14T04:30:04.035Z,12.36
2022-10-14T04:31:04.025Z,12.35
2022-10-14T04:32:04.015Z,12.35
2022-10-14T04:33:04.024Z,12.36
2022-10-14T04:34:03.995Z,12.36
2022-10-14T04:35:03.979Z,12.35
2022-10-14T04:36:03.966Z,12.35
2022-10-14T04:37:03.954Z,12.35
2022-10-14T04:38:03.925Z,12.36
2022-10-14T04:39:03.966Z,12.35
2022-10-14T04:40:03.905Z,12.35
2022-10-14T04:41:03.906Z,12.35
2022-10-14T04:42:03.885Z,12.35
2022-10-14T04:43:03.863Z,12.36
2022-10-14T04:44:03.899Z,12.36
2022-10-14T04:45:03.901Z,12.35
2022-10-14T04:46:03.825Z,12.33
2022-10-14T04:47:03.815Z,12.35
2022-10-14T04:48:03.806Z,12.35
2022-10-14T04:49:03.807Z,12.35
2022-10-14T04:50:03.785Z,12.35
2022-10-14T04:51:03.756Z,12.33
2022-10-14T04:52:03.758Z,12.33
2022-10-14T04:53:03.744Z,12.35
2022-10-14T04:54:03.745Z,12.33
2022-10-14T04:55:04.125Z,12.35
2022-10-14T04:56:03.700Z,12.35
2022-10-14T04:57:03.693Z,12.35
2022-10-14T04:58:03.675Z,12.35
2022-10-14T04:59:03.668Z,12.35
2022-10-14T05:00:03.665Z,12.35
2022-10-14T05:01:03.820Z,12.35
2022-10-14T05:02:03.682Z,12.35
2022-10-14T05:03:03.616Z,12.35
2022-10-14T05:04:03.669Z,12.36
2022-10-14T05:05:03.592Z,12.45
2022-10-14T05:06:03.649Z,12.61
2022-10-14T05:07:03.557Z,12.75
2022-10-14T05:08:03.536Z,12.91
2022-10-14T05:09:03.536Z,13.01
2022-10-14T05:10:03.527Z,13.16
2022-10-14T05:11:03.516Z,13.24
2022-10-14T05:12:03.478Z,13.30
2022-10-14T05:13:03.494Z,13.36
2022-10-14T05:14:03.457Z,13.42
2022-10-14T05:15:03.457Z,13.47
2022-10-14T05:16:03.427Z,13.40
2022-10-14T05:17:03.418Z,13.27
2022-10-14T05:18:03.398Z,13.19
2022-10-14T05:19:03.376Z,13.09
2022-10-14T05:20:03.384Z,13.03
2022-10-14T05:21:03.927Z,12.98
2022-10-14T05:22:04.303Z,12.91
2022-10-14T05:23:03.334Z,12.87
2022-10-14T05:24:03.327Z,12.84
2022-10-14T05:25:05.404Z,12.80
2022-10-14T05:26:03.300Z,12.76
2022-10-14T05:27:06.490Z,12.73
2022-10-14T05:28:03.267Z,12.72
2022-10-14T05:29:03.247Z,12.69
2022-10-14T05:30:03.286Z,12.66
2022-10-14T05:31:03.217Z,12.66
2022-10-14T05:32:03.207Z,12.65
2022-10-14T05:33:03.209Z,12.62
2022-10-14T05:34:03.189Z,12.61
2022-10-14T05:35:03.192Z,12.62
2022-10-14T05:36:03.137Z,12.58
2022-10-14T05:37:03.161Z,12.57
2022-10-14T05:38:04.357Z,12.57
2022-10-14T05:39:03.129Z,12.55
2022-10-14T05:40:03.266Z,12.55
2022-10-14T05:41:03.144Z,12.55
2022-10-14T05:42:04.845Z,12.55
2022-10-14T05:43:03.069Z,12.53
2022-10-14T05:44:03.058Z,12.54
2022-10-14T05:45:03.087Z,12.53
2022-10-14T05:46:03.038Z,12.53
2022-10-14T05:47:03.020Z,12.51
2022-10-14T05:48:03.009Z,12.51
2022-10-14T05:49:03.008Z,12.51
2022-10-14T05:50:02.978Z,12.50
2022-10-14T05:51:04.032Z,12.50
2022-10-14T05:52:02.980Z,12.51
2022-10-14T05:53:02.941Z,12.50
2022-10-14T05:54:02.928Z,12.50
2022-10-14T05:55:02.939Z,12.50
2022-10-14T05:56:02.892Z,12.50
2022-10-14T05:57:02.910Z,12.50
2022-10-14T05:58:02.869Z,12.51
2022-10-14T05:59:02.857Z,12.51
2022-10-14T06:00:02.837Z,12.50
2022-10-14T06:01:02.832Z,12.51
2022-10-14T06:02:02.809Z,12.51
2022-10-14T06:03:03.305Z,12.50
2022-10-14T06:04:02.782Z,12.50
2022-10-14T06:05:02.799Z,12.51
2022-10-14T06:06:02.770Z,12.54
2022-10-14T06:07:02.750Z,12.53
2022-10-14T06:08:02.740Z,12.53
2022-10-14T06:09:05.493Z,12.53
2022-10-14T06:10:03.727Z,12.53
2022-10-14T06:11:02.772Z,12.53
2022-10-14T06:12:02.679Z,12.51
2022-10-14T06:13:02.670Z,12.53
2022-10-14T06:14:02.640Z,12.53
2022-10-14T06:15:02.657Z,12.53
2022-10-14T06:16:02.619Z,12.53
2022-10-14T06:17:02.623Z,12.53
2022-10-14T06:18:02.599Z,12.53
2022-10-14T06:19:02.582Z,12.53
2022-10-14T06:20:02.681Z,12.53
2022-10-14T06:21:02.571Z,12.54
2022-10-14T06:22:02.542Z,12.54
2022-10-14T06:23:02.561Z,12.53
2022-10-14T06:24:02.544Z,12.53
2022-10-14T06:25:04.531Z,12.53
2022-10-14T06:26:02.488Z,12.54
2022-10-14T06:27:02.481Z,12.55
2022-10-14T06:28:02.473Z,12.54
2022-10-14T06:29:02.532Z,12.55
2022-10-14T06:30:02.461Z,12.54
2022-10-14T06:31:02.441Z,12.55
2022-10-14T06:32:02.411Z,12.55
2022-10-14T06:33:02.413Z,12.57
2022-10-14T06:34:02.403Z,12.57
2022-10-14T06:35:02.392Z,12.55
2022-10-14T06:36:02.362Z,12.58
2022-10-14T06:37:02.693Z,12.58
2022-10-14T06:38:02.348Z,12.58
2022-10-14T06:39:02.329Z,12.58
2022-10-14T06:40:02.323Z,12.61
2022-10-14T06:41:02.396Z,12.61
2022-10-14T06:42:02.302Z,12.62
2022-10-14T06:43:02.269Z,12.62
2022-10-14T06:44:02.273Z,12.62
2022-10-14T06:45:02.258Z,12.63
2022-10-14T06:46:02.214Z,12.63
2022-10-14T06:47:02.220Z,12.63
2022-10-14T06:48:02.201Z,12.66
2022-10-14T06:49:02.191Z,12.66
2022-10-14T06:50:02.189Z,12.69
2022-10-14T06:51:02.184Z,12.68
2022-10-14T06:52:02.141Z,12.69
2022-10-14T06:53:02.157Z,12.70
2022-10-14T06:54:02.120Z,12.69
2022-10-14T06:55:02.155Z,12.72
2022-10-14T06:56:02.105Z,12.72
2022-10-14T06:57:02.101Z,12.73
2022-10-14T06:58:02.080Z,12.75
2022-10-14T06:59:02.072Z,12.75
2022-10-14T07:00:02.157Z,12.78
2022-10-14T07:01:02.036Z,12.78
2022-10-14T07:02:02.101Z,12.80
2022-10-14T07:03:02.021Z,12.81
2022-10-14T07:04:02.397Z,12.81
2022-10-14T07:05:02.005Z,12.83
2022-10-14T07:06:01.972Z,12.83
2022-10-14T07:07:02.025Z,12.84
2022-10-14T07:08:02.000Z,12.84
2022-10-14T07:09:01.924Z,12.86
2022-10-14T07:10:01.923Z,12.86
2022-10-14T07:11:01.910Z,12.87
2022-10-14T07:12:01.900Z,12.88
2022-10-14T07:13:01.863Z,12.90
2022-10-14T07:14:01.862Z,12.90
2022-10-14T07:15:01.853Z,12.91
2022-10-14T07:16:01.832Z,12.91
2022-10-14T07:17:01.816Z,12.91
2022-10-14T07:18:01.815Z,12.91
2022-10-14T07:19:01.783Z,12.93
2022-10-14T07:20:01.792Z,12.93
2022-10-14T07:21:01.764Z,12.93
2022-10-14T07:22:01.755Z,12.93
2022-10-14T07:23:01.762Z,12.94
2022-10-14T07:24:01.744Z,12.94
2022-10-14T07:25:01.725Z,12.95
2022-10-14T07:26:02.414Z,12.95
2022-10-14T07:28:01.686Z,12.99
2022-10-14T07:29:01.934Z,12.99
2022-10-14T07:30:01.702Z,13.01
2022-10-14T07:31:01.636Z,13.02
2022-10-14T07:32:01.632Z,13.03
2022-10-14T07:33:01.634Z,13.02
2022-10-14T07:34:01.619Z,13.05
2022-10-14T07:35:01.586Z,13.05
2022-10-14T07:36:01.583Z,13.06
2022-10-14T07:37:01.705Z,13.05
2022-10-14T07:38:01.546Z,13.06
2022-10-14T07:39:02.775Z,13.06
2022-10-14T07:40:01.524Z,13.06
2022-10-14T07:41:01.542Z,13.06
2022-10-14T07:42:01.496Z,13.08
2022-10-14T07:43:01.477Z,13.08
2022-10-14T07:44:01.466Z,13.09
2022-10-14T07:45:01.457Z,13.09
2022-10-14T07:46:01.472Z,13.11
2022-10-14T07:47:01.426Z,13.11
2022-10-14T07:48:01.425Z,13.13
2022-10-14T07:49:01.445Z,13.13
2022-10-14T07:50:01.386Z,13.12
2022-10-14T07:51:01.386Z,13.12
2022-10-14T07:52:01.366Z,13.12
2022-10-14T07:53:01.770Z,13.16
2022-10-14T07:54:01.336Z,13.16
2022-10-14T07:55:01.316Z,13.17
2022-10-14T07:56:01.336Z,13.17
2022-10-14T07:57:01.294Z,13.17
2022-10-14T07:58:01.276Z,13.19
2022-10-14T07:59:01.257Z,13.21
2022-10-14T08:00:01.274Z,13.23
2022-10-14T08:01:01.255Z,13.24
2022-10-14T08:02:01.283Z,13.24
2022-10-14T08:03:01.217Z,13.26
2022-10-14T08:04:01.204Z,13.26
2022-10-14T08:05:25.654Z,13.27
2022-10-14T08:06:02.197Z,13.27
2022-10-14T08:07:01.155Z,13.31
2022-10-14T08:08:01.160Z,13.31
2022-10-14T08:09:01.146Z,13.31
2022-10-14T08:10:01.126Z,13.31
2022-10-14T08:11:01.117Z,13.33
2022-10-14T08:12:01.109Z,13.36
2022-10-14T08:13:01.077Z,13.36
2022-10-14T08:14:01.068Z,13.36
2022-10-14T08:15:01.059Z,13.36
2022-10-14T08:16:01.062Z,13.36
2022-10-14T08:17:01.025Z,13.36
2022-10-14T08:18:01.017Z,13.36
2022-10-14T08:19:00.997Z,13.37
2022-10-14T08:20:00.988Z,13.37
2022-10-14T08:21:00.987Z,13.39
2022-10-14T08:22:00.961Z,13.39
2022-10-14T08:23:00.947Z,13.39
2022-10-14T08:24:00.940Z,13.40
2022-10-14T08:25:00.920Z,13.40
2022-10-14T08:26:00.917Z,13.40
2022-10-14T08:27:00.898Z,13.43
2022-10-14T08:28:00.890Z,13.42
2022-10-14T08:29:00.865Z,13.43
2022-10-14T08:30:00.904Z,13.43
2022-10-14T08:31:00.849Z,13.43
2022-10-14T08:32:00.838Z,13.43
2022-10-14T08:33:00.822Z,13.46
2022-10-14T08:34:00.818Z,13.45
2022-10-14T08:35:00.787Z,13.46
2022-10-14T08:36:00.790Z,13.46
2022-10-14T08:37:00.759Z,13.47
2022-10-14T08:38:00.749Z,13.47
2022-10-14T08:39:00.758Z,13.49
2022-10-14T08:40:00.729Z,13.49
2022-10-14T08:41:00.717Z,13.49
2022-10-14T08:42:00.690Z,13.49
2022-10-14T08:43:00.692Z,13.50
2022-10-14T08:44:00.669Z,13.50
2022-10-14T08:45:00.651Z,13.54
2022-10-14T08:46:00.660Z,13.52
2022-10-14T08:47:00.631Z,13.54
2022-10-14T08:48:00.628Z,13.54
2022-10-14T08:49:00.628Z,13.55
2022-10-14T08:50:00.590Z,13.57
2022-10-14T08:51:00.576Z,13.58
2022-10-14T08:52:00.578Z,13.58
2022-10-14T08:53:00.562Z,13.58
2022-10-14T08:54:00.543Z,13.60
2022-10-14T08:55:00.531Z,13.60
2022-10-14T08:56:00.533Z,13.61
2022-10-14T08:57:00.529Z,13.62
2022-10-14T08:58:00.567Z,13.64
2022-10-14T08:59:00.471Z,13.65
2022-10-14T09:00:00.465Z,13.67
2022-10-14T09:01:00.443Z,13.68
2022-10-14T09:02:00.450Z,13.71
2022-10-14T09:03:00.500Z,13.71
2022-10-14T09:04:00.455Z,13.75
2022-10-14T09:05:00.383Z,13.76
2022-10-14T09:06:00.393Z,13.76
2022-10-14T09:07:00.371Z,13.79
2022-10-14T09:08:00.371Z,13.80
2022-10-14T09:09:00.343Z,13.80
2022-10-14T09:10:00.321Z,13.83
2022-10-14T09:11:00.322Z,13.83
2022-10-14T09:12:00.320Z,13.83
2022-10-14T09:13:00.308Z,13.83
2022-10-14T09:14:00.262Z,13.86
2022-10-14T09:15:00.282Z,13.85
2022-10-14T09:16:00.251Z,13.87
2022-10-14T09:17:00.310Z,13.87
2022-10-14T09:18:00.297Z,13.86
2022-10-14T09:19:00.201Z,13.87
2022-10-14T09:20:00.196Z,13.85
2022-10-14T09:21:00.175Z,13.86
2022-10-14T09:22:00.182Z,13.85
2022-10-14T09:23:00.178Z,13.86
2022-10-14T09:24:00.142Z,13.85
2022-10-14T09:25:00.128Z,13.86
2022-10-14T09:26:00.154Z,13.85
2022-10-14T09:27:00.141Z,13.83
2022-10-14T09:28:00.116Z,13.83
2022-10-14T09:29:00.174Z,13.83
2022-10-14T09:30:00.059Z,13.83
2022-10-14T09:31:00.051Z,13.82
2022-10-14T09:32:00.069Z,13.80
2022-10-14T09:33:00.012Z,13.82
2022-10-14T09:34:00.011Z,13.80
2022-10-14T09:34:59.981Z,13.82
2022-10-14T09:36:00.043Z,13.80
2022-10-14T09:36:59.982Z,13.82
2022-10-14T09:37:59.972Z,13.82
2022-10-14T09:39:03.744Z,13.83
2022-10-14T09:40:00.990Z,13.82
2022-10-14T09:41:00.047Z,13.85
2022-10-14T09:41:59.894Z,13.86
2022-10-14T09:42:59.895Z,13.87
2022-10-14T09:43:59.994Z,13.87
2022-10-14T09:44:59.858Z,13.87
2022-10-14T09:46:00.632Z,13.89
2022-10-14T09:46:59.860Z,13.94
2022-10-14T09:47:59.835Z,13.97
2022-10-14T09:48:59.805Z,14.03
2022-10-14T09:49:59.787Z,14.04
2022-10-14T09:50:59.774Z,14.07
2022-10-14T09:51:59.783Z,14.08
2022-10-14T09:53:10.735Z,14.08
2022-10-14T09:53:59.813Z,14.11
2022-10-14T09:54:59.727Z,14.11
2022-10-14T09:55:59.729Z,14.11
2022-10-14T09:56:59.707Z,14.11
2022-10-14T09:57:59.685Z,14.12
2022-10-14T09:58:59.656Z,14.11
2022-10-14T09:59:59.657Z,14.13
2022-10-14T10:00:59.693Z,14.12
2022-10-14T10:01:59.728Z,14.13
2022-10-14T10:02:59.618Z,14.13
2022-10-14T10:04:00.505Z,14.13
2022-10-14T10:04:59.599Z,14.15
2022-10-14T10:05:59.783Z,14.13
2022-10-14T10:06:59.597Z,14.13
2022-10-14T10:07:59.569Z,14.13
2022-10-14T10:08:59.629Z,14.13
2022-10-14T10:09:59.542Z,14.13
2022-10-14T10:11:03.649Z,14.13
2022-10-14T10:12:00.538Z,14.13
2022-10-14T10:12:59.569Z,14.13
2022-10-14T10:13:59.469Z,14.13
2022-10-14T10:14:59.449Z,14.16
2022-10-14T10:15:59.448Z,14.18
2022-10-14T10:16:59.437Z,14.16
2022-10-14T10:17:59.468Z,14.16
2022-10-14T10:18:59.427Z,14.18
2022-10-14T10:19:59.399Z,14.16
2022-10-14T10:20:59.369Z,14.16
2022-10-14T10:21:59.408Z,14.18
2022-10-14T10:22:59.362Z,14.19
2022-10-14T10:23:59.359Z,14.20
2022-10-14T10:24:59.331Z,14.20
2022-10-14T10:25:59.331Z,14.20
2022-10-14T10:26:59.351Z,14.20
2022-10-14T10:27:59.351Z,14.20
2022-10-14T10:28:59.354Z,14.22
2022-10-14T10:29:59.270Z,14.22
2022-10-14T10:30:59.260Z,14.22
2022-10-14T10:31:59.260Z,14.20
2022-10-14T10:32:59.238Z,14.20
2022-10-14T10:33:59.208Z,14.20
2022-10-14T10:34:59.202Z,14.22
2022-10-14T10:35:59.170Z,14.20
2022-10-14T10:36:59.160Z,14.22
2022-10-14T10:37:59.171Z,14.19
2022-10-14T10:38:59.140Z,14.19
2022-10-14T10:39:59.143Z,14.20
2022-10-14T10:40:59.120Z,14.22
2022-10-14T10:41:59.124Z,14.22
2022-10-14T10:42:59.100Z,14.23
2022-10-14T10:43:59.079Z,14.23
2022-10-14T10:44:59.063Z,14.23
2022-10-14T10:45:59.081Z,14.23
2022-10-14T10:46:59.389Z,14.23
2022-10-14T10:47:59.062Z,14.23
2022-10-14T10:48:59.023Z,14.23
2022-10-14T10:49:59.006Z,14.23
2022-10-14T10:50:58.972Z,14.23
2022-10-14T10:51:58.961Z,14.22
2022-10-14T10:52:58.990Z,14.23
2022-10-14T10:53:58.972Z,14.25
2022-10-14T10:54:58.926Z,14.25
2022-10-14T10:55:58.921Z,14.25
2022-10-14T10:56:58.917Z,14.25
2022-10-14T10:57:58.906Z,14.25
2022-10-14T10:58:58.870Z,14.23
2022-10-14T10:59:58.863Z,14.23
2022-10-14T11:00:58.850Z,14.25
2022-10-14T11:01:58.842Z,14.26
2022-10-14T11:02:58.831Z,14.25
2022-10-14T11:03:58.821Z,14.26
2022-10-14T11:04:58.791Z,14.30
2022-10-14T11:05:58.771Z,14.30
2022-10-14T11:06:58.791Z,14.30
2022-10-14T11:07:58.782Z,14.31
2022-10-14T11:08:58.752Z,14.36
2022-10-14T11:09:58.733Z,14.37
2022-10-14T11:10:58.713Z,14.37
2022-10-14T11:11:58.703Z,14.37
2022-10-14T11:12:58.702Z,14.37
2022-10-14T11:13:58.723Z,14.38
2022-10-14T11:14:58.661Z,14.38
2022-10-14T11:15:58.643Z,14.37
2022-10-14T11:16:58.634Z,14.37
2022-10-14T11:17:58.676Z,14.38
2022-10-14T11:18:58.603Z,14.38
2022-10-14T11:19:58.592Z,14.38
2022-10-14T11:20:58.585Z,14.40
2022-10-14T11:21:58.582Z,14.38
2022-10-14T11:22:58.572Z,14.40
2022-10-14T11:23:58.542Z,14.41
2022-10-14T11:24:58.686Z,14.40
2022-10-14T11:25:58.522Z,14.41
2022-10-14T11:26:58.554Z,14.44
2022-10-14T11:27:58.504Z,14.44
2022-10-14T11:28:58.543Z,14.45
2022-10-14T11:29:58.462Z,14.45
2022-10-14T11:30:58.454Z,14.45
2022-10-14T11:31:58.435Z,14.48
2022-10-14T11:32:58.436Z,14.45
2022-10-14T11:33:58.408Z,14.44
2022-10-14T11:34:58.408Z,14.43
2022-10-14T11:35:58.384Z,14.44
2022-10-14T11:36:58.376Z,14.44
2022-10-14T11:37:58.373Z,14.44
2022-10-14T11:38:58.343Z,14.45
2022-10-14T11:39:58.371Z,14.45
2022-10-14T11:40:58.333Z,14.48
2022-10-14T11:41:58.293Z,14.43
2022-10-14T11:42:58.303Z,14.44
2022-10-14T11:43:58.550Z,14.43
2022-10-14T11:44:58.273Z,14.41
2022-10-14T11:45:58.326Z,14.43
2022-10-14T11:46:58.234Z,14.41
2022-10-14T11:47:58.333Z,14.43
2022-10-14T11:48:58.263Z,14.43
2022-10-14T11:49:58.211Z,14.41
2022-10-14T11:50:58.221Z,14.40
2022-10-14T11:51:58.463Z,14.40
2022-10-14T11:52:58.276Z,14.40
2022-10-14T11:53:58.477Z,14.37
2022-10-14T11:54:58.144Z,14.38
2022-10-14T11:55:58.177Z,14.38
2022-10-14T11:56:58.142Z,14.37
2022-10-14T11:57:58.135Z,14.38
2022-10-14T11:58:58.258Z,14.38
2022-10-14T11:59:58.054Z,14.37
2022-10-14T12:00:58.078Z,14.37
2022-10-14T12:01:58.044Z,14.36
2022-10-14T12:02:58.236Z,14.34
2022-10-14T12:03:58.067Z,14.36
2022-10-14T12:04:58.023Z,14.34
2022-10-14T12:05:58.057Z,14.34
2022-10-14T12:06:57.985Z,14.33
2022-10-14T12:07:58.606Z,14.33
2022-10-14T12:08:58.025Z,14.31
2022-10-14T12:09:59.937Z,14.31
2022-10-14T12:10:58.036Z,14.30
2022-10-14T12:11:58.250Z,14.28
2022-10-14T12:12:57.913Z,14.28
2022-10-14T12:13:57.901Z,14.26
2022-10-14T12:14:58.117Z,14.26
2022-10-14T12:15:57.991Z,14.25
2022-10-14T12:16:57.848Z,14.25
2022-10-14T12:17:57.856Z,14.25
2022-10-14T12:18:57.860Z,14.23
2022-10-14T12:19:57.797Z,14.23
2022-10-14T12:20:57.806Z,14.22
2022-10-14T12:21:57.798Z,14.23
2022-10-14T12:22:57.803Z,14.22
2022-10-14T12:23:57.769Z,14.23
2022-10-14T12:24:57.788Z,14.23
2022-10-14T12:25:57.717Z,14.25
2022-10-14T12:26:57.728Z,14.23
2022-10-14T12:27:57.747Z,14.23
2022-10-14T12:29:00.053Z,14.22
2022-10-14T12:29:58.661Z,14.23
2022-10-14T12:30:57.668Z,14.22
2022-10-14T12:31:57.651Z,14.23
2022-10-14T12:32:57.646Z,14.23
2022-10-14T12:33:57.659Z,14.22
2022-10-14T12:34:57.618Z,14.22
2022-10-14T12:35:57.899Z,14.20
2022-10-14T12:36:57.592Z,14.20
2022-10-14T12:38:57.670Z,14.19
2022-10-14T12:39:57.539Z,14.19
2022-10-14T12:40:57.598Z,14.19
2022-10-14T12:41:57.544Z,14.19
2022-10-14T12:42:57.569Z,14.18
2022-10-14T12:43:57.498Z,14.18
2022-10-14T12:44:57.512Z,14.18
2022-10-14T12:45:57.449Z,14.16
2022-10-14T12:46:57.548Z,14.18
2022-10-14T12:47:57.536Z,14.16
2022-10-14T12:48:57.499Z,14.18
2022-10-14T12:49:57.559Z,14.18
2022-10-14T12:50:57.465Z,14.19
2022-10-14T12:51:57.380Z,14.19
2022-10-14T12:52:57.441Z,14.19
2022-10-14T12:53:57.482Z,14.20
2022-10-14T12:54:57.379Z,14.18